Flugplatz Gießen-Lützellinden

Für EDFL sind keine METAR/TAF Berichte vorhanden.
Es werden die Flugwettermeldungen vom Flugplatz Siegerland in 40 km Entfernung angezeigt.

Prognose für EDGS

vom 17.07. um 00:00 UTC

Am 17.07. zwischen 00:00 UTC und 00:00 UTC

variable Windrichtung mit 3 kt

Sichtweite 10 km oder mehr

keine signifikanten Wettererscheinungen

keine Wolken

TAF EDGS 171700Z 1718/1803 VRB03KT CAVOK
Impressum